sensor_id;sensor_type;location;lat;lon;timestamp;P1;durP1;ratioP1;P2;durP2;ratioP2
58360;SDS011;44164;44.954;10.068;2023-02-04T00:01:44;9.90;;;8.05;;
58360;SDS011;44164;44.954;10.068;2023-02-04T00:04:11;9.95;;;8.25;;
58360;SDS011;44164;44.954;10.068;2023-02-04T00:06:37;8.80;;;7.25;;
58360;SDS011;44164;44.954;10.068;2023-02-04T00:09:04;9.93;;;7.70;;
58360;SDS011;44164;44.954;10.068;2023-02-04T00:11:31;11.27;;;7.78;;
58360;SDS011;44164;44.954;10.068;2023-02-04T00:13:57;8.88;;;7.35;;
58360;SDS011;44164;44.954;10.068;2023-02-04T00:16:23;8.02;;;6.95;;
58360;SDS011;44164;44.954;10.068;2023-02-04T00:18:49;8.07;;;7.07;;
58360;SDS011;44164;44.954;10.068;2023-02-04T00:21:16;8.80;;;7.32;;
58360;SDS011;44164;44.954;10.068;2023-02-04T00:23:42;9.93;;;8.07;;
58360;SDS011;44164;44.954;10.068;2023-02-04T00:26:08;7.43;;;6.63;;
58360;SDS011;44164;44.954;10.068;2023-02-04T00:28:34;9.77;;;8.10;;
58360;SDS011;44164;44.954;10.068;2023-02-04T00:31:00;7.28;;;6.57;;
58360;SDS011;44164;44.954;10.068;2023-02-04T00:33:26;8.32;;;7.28;;
58360;SDS011;44164;44.954;10.068;2023-02-04T00:35:53;7.88;;;6.40;;
58360;SDS011;44164;44.954;10.068;2023-02-04T00:38:20;7.68;;;6.63;;
58360;SDS011;44164;44.954;10.068;2023-02-04T00:40:47;9.15;;;6.97;;
58360;SDS011;44164;44.954;10.068;2023-02-04T00:43:13;8.48;;;6.40;;
58360;SDS011;44164;44.954;10.068;2023-02-04T00:45:39;9.40;;;7.18;;
58360;SDS011;44164;44.954;10.068;2023-02-04T00:48:06;8.43;;;6.65;;
58360;SDS011;44164;44.954;10.068;2023-02-04T00:50:32;8.65;;;6.55;;
58360;SDS011;44164;44.954;10.068;2023-02-04T00:53:00;7.85;;;6.32;;
58360;SDS011;44164;44.954;10.068;2023-02-04T00:55:29;9.50;;;6.47;;
58360;SDS011;44164;44.954;10.068;2023-02-04T00:57:55;7.25;;;6.00;;
58360;SDS011;44164;44.954;10.068;2023-02-04T01:00:21;6.80;;;6.10;;
58360;SDS011;44164;44.954;10.068;2023-02-04T01:02:47;8.52;;;6.07;;
58360;SDS011;44164;44.954;10.068;2023-02-04T01:05:13;6.78;;;5.88;;
58360;SDS011;44164;44.954;10.068;2023-02-04T01:07:39;8.32;;;6.28;;
58360;SDS011;44164;44.954;10.068;2023-02-04T01:10:06;9.32;;;6.65;;
58360;SDS011;44164;44.954;10.068;2023-02-04T01:12:32;7.40;;;6.55;;
58360;SDS011;44164;44.954;10.068;2023-02-04T01:14:58;7.10;;;5.80;;
58360;SDS011;44164;44.954;10.068;2023-02-04T01:17:24;7.55;;;5.65;;
58360;SDS011;44164;44.954;10.068;2023-02-04T01:19:52;8.25;;;6.25;;
58360;SDS011;44164;44.954;10.068;2023-02-04T01:22:19;6.95;;;5.75;;
58360;SDS011;44164;44.954;10.068;2023-02-04T01:24:46;7.47;;;5.45;;
58360;SDS011;44164;44.954;10.068;2023-02-04T01:27:32;7.68;;;5.80;;
58360;SDS011;44164;44.954;10.068;2023-02-04T01:29:58;5.65;;;5.03;;
58360;SDS011;44164;44.954;10.068;2023-02-04T01:32:24;5.90;;;5.07;;
58360;SDS011;44164;44.954;10.068;2023-02-04T01:34:51;7.18;;;5.55;;
58360;SDS011;44164;44.954;10.068;2023-02-04T01:37:17;7.03;;;5.20;;
58360;SDS011;44164;44.954;10.068;2023-02-04T01:39:43;6.72;;;5.55;;
58360;SDS011;44164;44.954;10.068;2023-02-04T01:42:10;6.78;;;5.55;;
58360;SDS011;44164;44.954;10.068;2023-02-04T01:44:36;6.88;;;5.20;;
58360;SDS011;44164;44.954;10.068;2023-02-04T01:47:02;7.80;;;5.25;;
58360;SDS011;44164;44.954;10.068;2023-02-04T01:49:28;6.03;;;4.82;;
58360;SDS011;44164;44.954;10.068;2023-02-04T01:51:55;5.93;;;5.28;;
58360;SDS011;44164;44.954;10.068;2023-02-04T01:54:21;8.30;;;5.35;;
58360;SDS011;44164;44.954;10.068;2023-02-04T01:56:47;6.70;;;5.35;;
58360;SDS011;44164;44.954;10.068;2023-02-04T01:59:16;6.60;;;5.40;;
58360;SDS011;44164;44.954;10.068;2023-02-04T02:01:48;6.22;;;5.45;;
58360;SDS011;44164;44.954;10.068;2023-02-04T02:04:20;6.35;;;5.43;;
58360;SDS011;44164;44.954;10.068;2023-02-04T02:06:56;7.53;;;5.30;;
58360;SDS011;44164;44.954;10.068;2023-02-04T02:09:24;6.20;;;4.97;;
58360;SDS011;44164;44.954;10.068;2023-02-04T02:14:18;6.03;;;4.70;;
58360;SDS011;44164;44.954;10.068;2023-02-04T02:16:44;6.18;;;5.20;;
58360;SDS011;44164;44.954;10.068;2023-02-04T02:19:12;6.72;;;5.22;;
58360;SDS011;44164;44.954;10.068;2023-02-04T02:22:04;5.82;;;4.80;;
58360;SDS011;44164;44.954;10.068;2023-02-04T02:24:34;6.57;;;5.15;;
58360;SDS011;44164;44.954;10.068;2023-02-04T02:27:01;6.07;;;4.75;;
58360;SDS011;44164;44.954;10.068;2023-02-04T02:29:33;5.80;;;4.72;;
58360;SDS011;44164;44.954;10.068;2023-02-04T02:31:59;5.80;;;4.55;;
58360;SDS011;44164;44.954;10.068;2023-02-04T02:34:26;5.97;;;4.63;;
58360;SDS011;44164;44.954;10.068;2023-02-04T02:36:53;6.47;;;5.35;;
58360;SDS011;44164;44.954;10.068;2023-02-04T02:39:20;7.18;;;5.18;;
58360;SDS011;44164;44.954;10.068;2023-02-04T02:41:46;5.97;;;4.65;;
58360;SDS011;44164;44.954;10.068;2023-02-04T02:44:13;7.75;;;4.97;;
58360;SDS011;44164;44.954;10.068;2023-02-04T02:46:40;6.93;;;5.10;;
58360;SDS011;44164;44.954;10.068;2023-02-04T02:49:09;7.80;;;4.75;;
58360;SDS011;44164;44.954;10.068;2023-02-04T02:51:39;6.43;;;4.80;;
58360;SDS011;44164;44.954;10.068;2023-02-04T02:54:07;6.53;;;5.15;;
58360;SDS011;44164;44.954;10.068;2023-02-04T02:56:45;5.13;;;4.45;;
58360;SDS011;44164;44.954;10.068;2023-02-04T02:59:12;7.75;;;4.72;;
58360;SDS011;44164;44.954;10.068;2023-02-04T03:01:39;6.97;;;5.00;;
58360;SDS011;44164;44.954;10.068;2023-02-04T03:04:08;5.60;;;4.90;;
58360;SDS011;44164;44.954;10.068;2023-02-04T03:06:34;6.10;;;4.72;;
58360;SDS011;44164;44.954;10.068;2023-02-04T03:09:00;5.90;;;4.90;;
58360;SDS011;44164;44.954;10.068;2023-02-04T03:11:27;5.72;;;5.13;;
58360;SDS011;44164;44.954;10.068;2023-02-04T03:16:21;7.45;;;5.32;;
58360;SDS011;44164;44.954;10.068;2023-02-04T03:18:48;5.10;;;4.25;;
58360;SDS011;44164;44.954;10.068;2023-02-04T03:21:14;6.57;;;5.13;;
58360;SDS011;44164;44.954;10.068;2023-02-04T03:23:40;6.60;;;5.40;;
58360;SDS011;44164;44.954;10.068;2023-02-04T03:26:07;5.28;;;4.68;;
58360;SDS011;44164;44.954;10.068;2023-02-04T03:28:33;5.10;;;4.53;;
58360;SDS011;44164;44.954;10.068;2023-02-04T03:31:04;7.82;;;5.38;;
58360;SDS011;44164;44.954;10.068;2023-02-04T03:33:30;5.47;;;4.78;;
58360;SDS011;44164;44.954;10.068;2023-02-04T03:35:57;5.82;;;4.90;;
58360;SDS011;44164;44.954;10.068;2023-02-04T03:38:24;6.15;;;4.70;;
58360;SDS011;44164;44.954;10.068;2023-02-04T03:40:50;5.60;;;4.60;;
58360;SDS011;44164;44.954;10.068;2023-02-04T03:43:16;5.68;;;4.75;;
58360;SDS011;44164;44.954;10.068;2023-02-04T03:45:42;6.20;;;5.22;;
58360;SDS011;44164;44.954;10.068;2023-02-04T03:48:08;5.45;;;4.57;;
58360;SDS011;44164;44.954;10.068;2023-02-04T03:50:34;6.50;;;5.25;;
58360;SDS011;44164;44.954;10.068;2023-02-04T03:53:01;5.75;;;5.10;;
58360;SDS011;44164;44.954;10.068;2023-02-04T03:55:27;6.22;;;5.07;;
58360;SDS011;44164;44.954;10.068;2023-02-04T03:57:53;6.20;;;5.25;;
58360;SDS011;44164;44.954;10.068;2023-02-04T04:00:19;6.80;;;4.78;;
58360;SDS011;44164;44.954;10.068;2023-02-04T04:02:45;6.82;;;4.68;;
58360;SDS011;44164;44.954;10.068;2023-02-04T04:05:11;5.07;;;4.57;;
58360;SDS011;44164;44.954;10.068;2023-02-04T04:07:37;6.32;;;4.65;;
58360;SDS011;44164;44.954;10.068;2023-02-04T04:10:04;7.22;;;4.90;;
58360;SDS011;44164;44.954;10.068;2023-02-04T04:12:30;7.20;;;5.43;;
58360;SDS011;44164;44.954;10.068;2023-02-04T04:14:57;6.82;;;5.60;;
58360;SDS011;44164;44.954;10.068;2023-02-04T04:17:23;6.00;;;4.88;;
58360;SDS011;44164;44.954;10.068;2023-02-04T04:19:49;6.53;;;4.70;;
58360;SDS011;44164;44.954;10.068;2023-02-04T04:22:15;6.95;;;5.53;;
58360;SDS011;44164;44.954;10.068;2023-02-04T04:24:41;6.60;;;5.28;;
58360;SDS011;44164;44.954;10.068;2023-02-04T04:27:08;6.85;;;5.47;;
58360;SDS011;44164;44.954;10.068;2023-02-04T04:29:34;6.25;;;5.20;;
58360;SDS011;44164;44.954;10.068;2023-02-04T04:32:00;6.18;;;5.20;;
58360;SDS011;44164;44.954;10.068;2023-02-04T04:34:26;6.22;;;4.72;;
58360;SDS011;44164;44.954;10.068;2023-02-04T04:36:53;7.07;;;5.35;;
58360;SDS011;44164;44.954;10.068;2023-02-04T04:39:19;5.82;;;4.88;;
58360;SDS011;44164;44.954;10.068;2023-02-04T04:41:45;6.18;;;5.30;;
58360;SDS011;44164;44.954;10.068;2023-02-04T04:44:11;6.28;;;5.07;;
58360;SDS011;44164;44.954;10.068;2023-02-04T04:46:37;6.72;;;5.28;;
58360;SDS011;44164;44.954;10.068;2023-02-04T04:49:05;6.72;;;5.82;;
58360;SDS011;44164;44.954;10.068;2023-02-04T04:51:31;7.70;;;6.07;;
58360;SDS011;44164;44.954;10.068;2023-02-04T04:53:58;6.47;;;5.32;;
58360;SDS011;44164;44.954;10.068;2023-02-04T04:56:24;6.22;;;4.97;;
58360;SDS011;44164;44.954;10.068;2023-02-04T04:58:51;6.57;;;5.25;;
58360;SDS011;44164;44.954;10.068;2023-02-04T05:01:17;6.75;;;5.22;;
58360;SDS011;44164;44.954;10.068;2023-02-04T05:03:43;6.13;;;4.97;;
58360;SDS011;44164;44.954;10.068;2023-02-04T05:06:09;6.30;;;5.20;;
58360;SDS011;44164;44.954;10.068;2023-02-04T05:08:37;7.55;;;5.80;;
58360;SDS011;44164;44.954;10.068;2023-02-04T05:11:04;6.57;;;5.38;;
58360;SDS011;44164;44.954;10.068;2023-02-04T05:13:30;6.78;;;5.18;;
58360;SDS011;44164;44.954;10.068;2023-02-04T05:15:56;6.18;;;5.20;;
58360;SDS011;44164;44.954;10.068;2023-02-04T05:18:22;5.90;;;5.28;;
58360;SDS011;44164;44.954;10.068;2023-02-04T05:20:49;6.25;;;5.32;;
58360;SDS011;44164;44.954;10.068;2023-02-04T05:23:15;6.93;;;5.18;;
58360;SDS011;44164;44.954;10.068;2023-02-04T05:25:41;7.43;;;5.50;;
58360;SDS011;44164;44.954;10.068;2023-02-04T05:28:08;6.95;;;5.03;;
58360;SDS011;44164;44.954;10.068;2023-02-04T05:30:34;6.30;;;5.45;;
58360;SDS011;44164;44.954;10.068;2023-02-04T05:33:00;5.90;;;4.72;;
58360;SDS011;44164;44.954;10.068;2023-02-04T05:35:26;6.47;;;5.05;;
58360;SDS011;44164;44.954;10.068;2023-02-04T05:37:52;6.85;;;5.28;;
58360;SDS011;44164;44.954;10.068;2023-02-04T05:40:19;7.40;;;5.40;;
58360;SDS011;44164;44.954;10.068;2023-02-04T05:42:45;6.03;;;4.60;;
58360;SDS011;44164;44.954;10.068;2023-02-04T05:45:13;5.80;;;5.10;;
58360;SDS011;44164;44.954;10.068;2023-02-04T05:47:40;5.38;;;4.72;;
58360;SDS011;44164;44.954;10.068;2023-02-04T05:50:06;6.82;;;5.25;;
58360;SDS011;44164;44.954;10.068;2023-02-04T05:52:33;6.43;;;5.20;;
58360;SDS011;44164;44.954;10.068;2023-02-04T05:54:59;6.13;;;5.15;;
58360;SDS011;44164;44.954;10.068;2023-02-04T05:57:25;5.68;;;5.07;;
58360;SDS011;44164;44.954;10.068;2023-02-04T05:59:51;7.55;;;5.38;;
58360;SDS011;44164;44.954;10.068;2023-02-04T06:02:18;6.82;;;5.28;;
58360;SDS011;44164;44.954;10.068;2023-02-04T06:04:44;7.32;;;5.53;;
58360;SDS011;44164;44.954;10.068;2023-02-04T06:07:11;7.20;;;5.78;;
58360;SDS011;44164;44.954;10.068;2023-02-04T06:09:37;6.15;;;4.95;;
58360;SDS011;44164;44.954;10.068;2023-02-04T06:12:03;8.05;;;5.72;;
58360;SDS011;44164;44.954;10.068;2023-02-04T06:14:29;5.80;;;5.05;;
58360;SDS011;44164;44.954;10.068;2023-02-04T06:16:56;6.15;;;5.40;;
58360;SDS011;44164;44.954;10.068;2023-02-04T06:19:22;8.57;;;5.65;;
58360;SDS011;44164;44.954;10.068;2023-02-04T06:21:48;6.32;;;5.53;;
58360;SDS011;44164;44.954;10.068;2023-02-04T06:24:14;5.57;;;4.97;;
58360;SDS011;44164;44.954;10.068;2023-02-04T06:26:40;6.28;;;5.03;;
58360;SDS011;44164;44.954;10.068;2023-02-04T06:29:06;6.30;;;4.78;;
58360;SDS011;44164;44.954;10.068;2023-02-04T06:31:33;5.10;;;4.10;;
58360;SDS011;44164;44.954;10.068;2023-02-04T06:34:02;6.63;;;5.18;;
58360;SDS011;44164;44.954;10.068;2023-02-04T06:36:28;5.60;;;4.57;;
58360;SDS011;44164;44.954;10.068;2023-02-04T06:38:55;7.63;;;5.85;;
58360;SDS011;44164;44.954;10.068;2023-02-04T06:41:21;5.68;;;5.07;;
58360;SDS011;44164;44.954;10.068;2023-02-04T06:43:47;5.57;;;4.72;;
58360;SDS011;44164;44.954;10.068;2023-02-04T06:46:13;6.30;;;4.97;;
58360;SDS011;44164;44.954;10.068;2023-02-04T06:48:39;5.75;;;4.72;;
58360;SDS011;44164;44.954;10.068;2023-02-04T06:51:05;5.85;;;5.00;;
58360;SDS011;44164;44.954;10.068;2023-02-04T06:53:31;6.45;;;4.85;;
58360;SDS011;44164;44.954;10.068;2023-02-04T06:55:57;6.75;;;5.00;;
58360;SDS011;44164;44.954;10.068;2023-02-04T06:58:23;6.25;;;5.45;;
58360;SDS011;44164;44.954;10.068;2023-02-04T07:00:50;6.55;;;4.65;;
58360;SDS011;44164;44.954;10.068;2023-02-04T07:03:16;6.88;;;5.45;;
58360;SDS011;44164;44.954;10.068;2023-02-04T07:05:42;8.55;;;5.93;;
58360;SDS011;44164;44.954;10.068;2023-02-04T07:08:08;10.57;;;8.35;;
58360;SDS011;44164;44.954;10.068;2023-02-04T07:10:34;8.20;;;7.25;;
58360;SDS011;44164;44.954;10.068;2023-02-04T07:13:00;7.93;;;6.68;;
58360;SDS011;44164;44.954;10.068;2023-02-04T07:15:26;8.20;;;5.85;;
58360;SDS011;44164;44.954;10.068;2023-02-04T07:17:53;7.03;;;5.72;;
58360;SDS011;44164;44.954;10.068;2023-02-04T07:20:19;7.10;;;5.80;;
58360;SDS011;44164;44.954;10.068;2023-02-04T07:22:45;8.63;;;6.65;;
58360;SDS011;44164;44.954;10.068;2023-02-04T07:25:11;7.75;;;6.03;;
58360;SDS011;44164;44.954;10.068;2023-02-04T07:30:05;8.25;;;6.35;;
58360;SDS011;44164;44.954;10.068;2023-02-04T07:32:32;8.57;;;6.50;;
58360;SDS011;44164;44.954;10.068;2023-02-04T07:34:58;8.82;;;6.15;;
58360;SDS011;44164;44.954;10.068;2023-02-04T07:37:25;7.53;;;6.15;;
58360;SDS011;44164;44.954;10.068;2023-02-04T07:39:51;8.60;;;6.00;;
58360;SDS011;44164;44.954;10.068;2023-02-04T07:42:17;7.57;;;6.43;;
58360;SDS011;44164;44.954;10.068;2023-02-04T07:44:51;7.07;;;6.38;;
58360;SDS011;44164;44.954;10.068;2023-02-04T07:47:17;9.10;;;6.35;;
58360;SDS011;44164;44.954;10.068;2023-02-04T07:49:43;8.23;;;5.72;;
58360;SDS011;44164;44.954;10.068;2023-02-04T07:52:09;7.32;;;5.45;;
58360;SDS011;44164;44.954;10.068;2023-02-04T07:54:35;7.07;;;5.63;;
58360;SDS011;44164;44.954;10.068;2023-02-04T07:57:02;6.25;;;4.60;;
58360;SDS011;44164;44.954;10.068;2023-02-04T07:59:28;9.27;;;5.57;;
58360;SDS011;44164;44.954;10.068;2023-02-04T08:01:54;8.07;;;6.30;;
58360;SDS011;44164;44.954;10.068;2023-02-04T08:04:20;8.55;;;5.00;;
58360;SDS011;44164;44.954;10.068;2023-02-04T08:06:46;8.77;;;5.88;;
58360;SDS011;44164;44.954;10.068;2023-02-04T08:09:12;7.30;;;5.60;;
58360;SDS011;44164;44.954;10.068;2023-02-04T08:11:39;7.43;;;6.10;;
58360;SDS011;44164;44.954;10.068;2023-02-04T08:14:05;8.10;;;6.10;;
58360;SDS011;44164;44.954;10.068;2023-02-04T08:16:31;8.93;;;6.40;;
58360;SDS011;44164;44.954;10.068;2023-02-04T08:18:57;9.15;;;5.78;;
58360;SDS011;44164;44.954;10.068;2023-02-04T08:21:23;6.72;;;5.53;;
58360;SDS011;44164;44.954;10.068;2023-02-04T08:23:49;6.70;;;5.57;;
58360;SDS011;44164;44.954;10.068;2023-02-04T08:26:16;6.72;;;5.55;;
58360;SDS011;44164;44.954;10.068;2023-02-04T08:28:42;8.48;;;5.25;;
58360;SDS011;44164;44.954;10.068;2023-02-04T08:31:08;8.50;;;5.93;;
58360;SDS011;44164;44.954;10.068;2023-02-04T08:33:38;8.38;;;5.50;;
58360;SDS011;44164;44.954;10.068;2023-02-04T08:36:05;7.28;;;5.80;;
58360;SDS011;44164;44.954;10.068;2023-02-04T08:38:32;6.95;;;5.13;;
58360;SDS011;44164;44.954;10.068;2023-02-04T08:40:58;8.07;;;5.53;;
58360;SDS011;44164;44.954;10.068;2023-02-04T08:43:25;6.20;;;4.82;;
58360;SDS011;44164;44.954;10.068;2023-02-04T08:45:51;6.95;;;5.05;;
58360;SDS011;44164;44.954;10.068;2023-02-04T08:48:17;7.50;;;5.03;;
58360;SDS011;44164;44.954;10.068;2023-02-04T08:50:44;7.43;;;5.15;;
58360;SDS011;44164;44.954;10.068;2023-02-04T08:53:10;6.95;;;5.32;;
58360;SDS011;44164;44.954;10.068;2023-02-04T08:55:36;5.80;;;4.88;;
58360;SDS011;44164;44.954;10.068;2023-02-04T08:58:02;5.32;;;4.60;;
58360;SDS011;44164;44.954;10.068;2023-02-04T09:00:28;6.00;;;5.20;;
58360;SDS011;44164;44.954;10.068;2023-02-04T09:02:55;8.43;;;5.35;;
58360;SDS011;44164;44.954;10.068;2023-02-04T09:05:21;8.27;;;5.40;;
58360;SDS011;44164;44.954;10.068;2023-02-04T09:07:47;6.32;;;4.68;;
58360;SDS011;44164;44.954;10.068;2023-02-04T09:10:13;7.88;;;5.20;;
58360;SDS011;44164;44.954;10.068;2023-02-04T09:12:40;6.53;;;4.70;;
58360;SDS011;44164;44.954;10.068;2023-02-04T09:15:08;5.78;;;4.22;;
58360;SDS011;44164;44.954;10.068;2023-02-04T09:17:35;6.45;;;4.53;;
58360;SDS011;44164;44.954;10.068;2023-02-04T09:20:02;5.20;;;4.38;;
58360;SDS011;44164;44.954;10.068;2023-02-04T09:22:28;6.35;;;4.80;;
58360;SDS011;44164;44.954;10.068;2023-02-04T09:24:55;4.85;;;4.25;;
58360;SDS011;44164;44.954;10.068;2023-02-04T09:27:21;6.65;;;4.85;;
58360;SDS011;44164;44.954;10.068;2023-02-04T09:29:47;6.15;;;4.40;;
58360;SDS011;44164;44.954;10.068;2023-02-04T09:32:13;5.97;;;4.47;;
58360;SDS011;44164;44.954;10.068;2023-02-04T09:34:39;5.53;;;4.47;;
58360;SDS011;44164;44.954;10.068;2023-02-04T09:37:05;6.38;;;4.80;;
58360;SDS011;44164;44.954;10.068;2023-02-04T09:39:31;6.20;;;4.78;;
58360;SDS011;44164;44.954;10.068;2023-02-04T09:41:58;6.50;;;4.40;;
58360;SDS011;44164;44.954;10.068;2023-02-04T09:44:24;5.75;;;4.10;;
58360;SDS011;44164;44.954;10.068;2023-02-04T09:46:52;5.27;;;4.13;;
58360;SDS011;44164;44.954;10.068;2023-02-04T09:51:45;5.13;;;3.78;;
58360;SDS011;44164;44.954;10.068;2023-02-04T09:54:16;8.70;;;4.15;;
58360;SDS011;44164;44.954;10.068;2023-02-04T09:56:44;5.70;;;3.75;;
58360;SDS011;44164;44.954;10.068;2023-02-04T09:59:14;5.35;;;3.65;;
58360;SDS011;44164;44.954;10.068;2023-02-04T10:01:43;5.38;;;3.60;;
58360;SDS011;44164;44.954;10.068;2023-02-04T10:04:13;5.28;;;3.97;;
58360;SDS011;44164;44.954;10.068;2023-02-04T10:06:40;7.55;;;4.55;;
58360;SDS011;44164;44.954;10.068;2023-02-04T10:09:08;5.22;;;3.70;;
58360;SDS011;44164;44.954;10.068;2023-02-04T10:11:36;4.70;;;3.80;;
58360;SDS011;44164;44.954;10.068;2023-02-04T10:14:03;5.47;;;4.05;;
58360;SDS011;44164;44.954;10.068;2023-02-04T10:16:31;4.20;;;3.78;;
58360;SDS011;44164;44.954;10.068;2023-02-04T10:18:59;5.25;;;3.92;;
58360;SDS011;44164;44.954;10.068;2023-02-04T10:21:28;5.05;;;3.78;;
58360;SDS011;44164;44.954;10.068;2023-02-04T10:23:57;4.28;;;3.60;;
58360;SDS011;44164;44.954;10.068;2023-02-04T10:26:25;5.20;;;3.55;;
58360;SDS011;44164;44.954;10.068;2023-02-04T10:29:01;6.03;;;4.13;;
58360;SDS011;44164;44.954;10.068;2023-02-04T10:31:32;4.68;;;3.65;;
58360;SDS011;44164;44.954;10.068;2023-02-04T10:34:01;5.50;;;4.57;;
58360;SDS011;44164;44.954;10.068;2023-02-04T10:36:37;6.13;;;3.90;;
58360;SDS011;44164;44.954;10.068;2023-02-04T10:39:06;4.60;;;3.38;;
58360;SDS011;44164;44.954;10.068;2023-02-04T10:41:37;4.28;;;3.40;;
58360;SDS011;44164;44.954;10.068;2023-02-04T10:44:05;4.90;;;3.80;;
58360;SDS011;44164;44.954;10.068;2023-02-04T10:46:34;4.63;;;3.42;;
58360;SDS011;44164;44.954;10.068;2023-02-04T10:49:02;4.45;;;3.78;;
58360;SDS011;44164;44.954;10.068;2023-02-04T10:51:29;5.72;;;4.00;;
58360;SDS011;44164;44.954;10.068;2023-02-04T10:53:56;4.22;;;3.25;;
58360;SDS011;44164;44.954;10.068;2023-02-04T10:56:40;4.57;;;3.28;;
58360;SDS011;44164;44.954;10.068;2023-02-04T10:59:11;4.82;;;3.50;;
58360;SDS011;44164;44.954;10.068;2023-02-04T11:01:46;4.40;;;3.40;;
58360;SDS011;44164;44.954;10.068;2023-02-04T11:04:12;5.95;;;3.63;;
58360;SDS011;44164;44.954;10.068;2023-02-04T11:06:38;4.32;;;3.78;;
58360;SDS011;44164;44.954;10.068;2023-02-04T11:09:04;3.88;;;2.97;;
58360;SDS011;44164;44.954;10.068;2023-02-04T11:11:31;4.35;;;3.25;;
58360;SDS011;44164;44.954;10.068;2023-02-04T11:14:00;4.55;;;3.47;;
58360;SDS011;44164;44.954;10.068;2023-02-04T11:16:29;4.60;;;3.50;;
58360;SDS011;44164;44.954;10.068;2023-02-04T11:24:04;4.63;;;3.50;;
58360;SDS011;44164;44.954;10.068;2023-02-04T11:39:26;3.80;;;2.90;;
58360;SDS011;44164;44.954;10.068;2023-02-04T11:41:54;3.97;;;3.10;;
58360;SDS011;44164;44.954;10.068;2023-02-04T11:44:20;3.40;;;3.10;;
58360;SDS011;44164;44.954;10.068;2023-02-04T11:46:48;4.95;;;2.78;;
58360;SDS011;44164;44.954;10.068;2023-02-04T11:49:20;4.43;;;3.38;;
58360;SDS011;44164;44.954;10.068;2023-02-04T11:51:48;3.70;;;2.90;;
58360;SDS011;44164;44.954;10.068;2023-02-04T11:54:15;4.70;;;3.28;;
58360;SDS011;44164;44.954;10.068;2023-02-04T11:56:44;3.60;;;2.80;;
58360;SDS011;44164;44.954;10.068;2023-02-04T11:59:12;4.75;;;3.53;;
58360;SDS011;44164;44.954;10.068;2023-02-04T12:01:39;3.63;;;2.97;;
58360;SDS011;44164;44.954;10.068;2023-02-04T12:04:07;4.32;;;3.38;;
58360;SDS011;44164;44.954;10.068;2023-02-04T12:06:44;3.83;;;2.70;;
58360;SDS011;44164;44.954;10.068;2023-02-04T12:09:26;3.90;;;2.70;;
58360;SDS011;44164;44.954;10.068;2023-02-04T12:11:55;3.60;;;2.53;;
58360;SDS011;44164;44.954;10.068;2023-02-04T12:16:58;5.45;;;2.83;;
58360;SDS011;44164;44.954;10.068;2023-02-04T12:19:24;3.60;;;3.00;;
58360;SDS011;44164;44.954;10.068;2023-02-04T12:21:51;6.07;;;2.60;;
58360;SDS011;44164;44.954;10.068;2023-02-04T12:24:17;6.68;;;3.05;;
58360;SDS011;44164;44.954;10.068;2023-02-04T12:26:43;4.30;;;3.47;;
58360;SDS011;44164;44.954;10.068;2023-02-04T12:29:09;4.18;;;2.85;;
58360;SDS011;44164;44.954;10.068;2023-02-04T12:31:35;5.05;;;3.00;;
58360;SDS011;44164;44.954;10.068;2023-02-04T12:34:01;4.03;;;2.92;;
58360;SDS011;44164;44.954;10.068;2023-02-04T12:36:28;3.75;;;2.90;;
58360;SDS011;44164;44.954;10.068;2023-02-04T12:38:54;3.58;;;2.85;;
58360;SDS011;44164;44.954;10.068;2023-02-04T12:41:23;3.60;;;2.70;;
58360;SDS011;44164;44.954;10.068;2023-02-04T12:43:50;4.72;;;3.00;;
58360;SDS011;44164;44.954;10.068;2023-02-04T12:46:16;3.80;;;2.72;;
58360;SDS011;44164;44.954;10.068;2023-02-04T12:48:43;3.83;;;2.80;;
58360;SDS011;44164;44.954;10.068;2023-02-04T12:51:09;3.58;;;2.83;;
58360;SDS011;44164;44.954;10.068;2023-02-04T12:53:35;3.38;;;2.50;;
58360;SDS011;44164;44.954;10.068;2023-02-04T12:56:01;3.22;;;2.70;;
58360;SDS011;44164;44.954;10.068;2023-02-04T12:58:27;4.88;;;2.72;;
58360;SDS011;44164;44.954;10.068;2023-02-04T13:00:53;4.93;;;2.53;;
58360;SDS011;44164;44.954;10.068;2023-02-04T13:03:19;5.22;;;2.60;;
58360;SDS011;44164;44.954;10.068;2023-02-04T13:05:47;2.95;;;2.25;;
58360;SDS011;44164;44.954;10.068;2023-02-04T13:08:13;3.55;;;2.63;;
58360;SDS011;44164;44.954;10.068;2023-02-04T13:10:40;4.82;;;2.50;;
58360;SDS011;44164;44.954;10.068;2023-02-04T13:13:06;3.60;;;2.50;;
58360;SDS011;44164;44.954;10.068;2023-02-04T13:15:32;4.65;;;2.58;;
58360;SDS011;44164;44.954;10.068;2023-02-04T13:17:58;3.63;;;2.45;;
58360;SDS011;44164;44.954;10.068;2023-02-04T13:20:25;3.50;;;2.35;;
58360;SDS011;44164;44.954;10.068;2023-02-04T13:22:51;4.07;;;2.45;;
58360;SDS011;44164;44.954;10.068;2023-02-04T13:25:17;3.30;;;2.42;;
58360;SDS011;44164;44.954;10.068;2023-02-04T13:27:43;3.08;;;2.22;;
58360;SDS011;44164;44.954;10.068;2023-02-04T13:30:10;2.75;;;2.05;;
58360;SDS011;44164;44.954;10.068;2023-02-04T13:32:36;4.35;;;2.42;;
58360;SDS011;44164;44.954;10.068;2023-02-04T13:35:02;3.83;;;2.47;;
58360;SDS011;44164;44.954;10.068;2023-02-04T13:37:29;4.07;;;2.88;;
58360;SDS011;44164;44.954;10.068;2023-02-04T13:39:55;4.15;;;2.70;;
58360;SDS011;44164;44.954;10.068;2023-02-04T13:42:21;3.47;;;2.72;;
58360;SDS011;44164;44.954;10.068;2023-02-04T13:44:47;3.75;;;2.35;;
58360;SDS011;44164;44.954;10.068;2023-02-04T13:47:14;3.00;;;2.15;;
58360;SDS011;44164;44.954;10.068;2023-02-04T13:49:40;3.03;;;2.13;;
58360;SDS011;44164;44.954;10.068;2023-02-04T13:52:06;3.95;;;2.40;;
58360;SDS011;44164;44.954;10.068;2023-02-04T13:54:32;3.05;;;2.42;;
58360;SDS011;44164;44.954;10.068;2023-02-04T13:56:58;4.82;;;2.25;;
58360;SDS011;44164;44.954;10.068;2023-02-04T13:59:24;2.97;;;2.08;;
58360;SDS011;44164;44.954;10.068;2023-02-04T14:01:50;3.10;;;2.25;;
58360;SDS011;44164;44.954;10.068;2023-02-04T14:04:17;3.33;;;2.53;;
58360;SDS011;44164;44.954;10.068;2023-02-04T14:06:43;2.85;;;2.17;;
58360;SDS011;44164;44.954;10.068;2023-02-04T14:09:10;4.40;;;2.55;;
58360;SDS011;44164;44.954;10.068;2023-02-04T14:11:39;3.03;;;2.03;;
58360;SDS011;44164;44.954;10.068;2023-02-04T14:14:05;3.67;;;2.33;;
58360;SDS011;44164;44.954;10.068;2023-02-04T14:16:32;3.92;;;2.17;;
58360;SDS011;44164;44.954;10.068;2023-02-04T14:18:59;2.80;;;2.05;;
58360;SDS011;44164;44.954;10.068;2023-02-04T14:21:28;3.22;;;2.13;;
58360;SDS011;44164;44.954;10.068;2023-02-04T14:23:54;4.35;;;2.40;;
58360;SDS011;44164;44.954;10.068;2023-02-04T14:26:20;3.67;;;2.47;;
58360;SDS011;44164;44.954;10.068;2023-02-04T14:28:47;5.45;;;2.60;;
58360;SDS011;44164;44.954;10.068;2023-02-04T14:31:13;3.17;;;2.17;;
58360;SDS011;44164;44.954;10.068;2023-02-04T14:33:39;3.10;;;2.28;;
58360;SDS011;44164;44.954;10.068;2023-02-04T14:36:05;3.15;;;2.35;;
58360;SDS011;44164;44.954;10.068;2023-02-04T14:38:32;6.20;;;2.55;;
58360;SDS011;44164;44.954;10.068;2023-02-04T14:40:59;4.28;;;2.65;;
58360;SDS011;44164;44.954;10.068;2023-02-04T14:43:25;2.80;;;2.10;;
58360;SDS011;44164;44.954;10.068;2023-02-04T14:45:52;4.35;;;2.20;;
58360;SDS011;44164;44.954;10.068;2023-02-04T14:48:18;4.75;;;2.28;;
58360;SDS011;44164;44.954;10.068;2023-02-04T14:50:44;3.00;;;1.85;;
58360;SDS011;44164;44.954;10.068;2023-02-04T14:53:10;3.17;;;2.20;;
58360;SDS011;44164;44.954;10.068;2023-02-04T14:55:36;2.92;;;2.20;;
58360;SDS011;44164;44.954;10.068;2023-02-04T14:58:03;5.07;;;2.10;;
58360;SDS011;44164;44.954;10.068;2023-02-04T15:00:29;2.78;;;2.00;;
58360;SDS011;44164;44.954;10.068;2023-02-04T15:02:55;3.03;;;1.80;;